Portada
METAR-TAF:

METAR-TAF

Aeropuertos :

Colmenar Viejo, España

latitud: 40-39N, longitud: 003-44W, altitud: -999 m

Observación

El informe se hizo hace 3 horas y 58 minutos, a las 18:00 UTC
Viento 5 kt del sur-suroeste
Temperatura 14°C
Humedad 47%
Presión 1019 hPa
Visibilidad 10 km o más
Escasas nubes a una altura de 6000 ft

METAR: LECV 161800Z 21005KT 9999 FEW060 14/03 Q1019

Hora: 23:58 (21:58 UTC)

Pronóstico

El informe se hizo hace 4 horas y 58 minutos, a las 17:00 UTC
Pronóstico válido del 16 a las 18 UTC al 17 a las 03 UTC
Viento 5 kt con dirección variable
Visibilidad 10 km o más
sin nubes por debajo de 1500 m y sin presencia de cumulonimbus.
Probabilidad 30% :
Temporalmente
del 16 a las 18 UTC al 16 a las 19 UTC
Viento 10 kt del sur-suroeste

TAF: LECV 161700Z 1618/1703 VRB05KT CAVOK PROB30 TEMPO 1618/1619 21010KT

Observaciones y pronósticos meteorológicos de más de 4000 aeropuertos (mensajes METAR y TAF).

Los puntos amarillos y rojos representan las estaciones disponibles.

Ponga el ratón en el punto deseado para ver el nombre de la estación.

Haga clic para ver las observaciones y los pronósticos meteorológicos.

Para cambiar el mapa : haga clic en los botones verdes con una cruz de color negro para hacer un zoom, en el botón verde con un guión para alejar o en las flechas verdes para mapas adyacentes.


METAR-TAF: